sensor_id;sensor_type;location;lat;lon;timestamp;P1;durP1;ratioP1;P2;durP2;ratioP2
2225;SDS011;1119;48.288;8.726;2024-02-26T00:01:01;20.80;;;2.03;;
2225;SDS011;1119;48.288;8.726;2024-02-26T00:03:30;20.77;;;1.90;;
2225;SDS011;1119;48.288;8.726;2024-02-26T00:06:00;20.90;;;2.20;;
2225;SDS011;1119;48.288;8.726;2024-02-26T00:08:28;20.90;;;1.93;;
2225;SDS011;1119;48.288;8.726;2024-02-26T00:10:55;20.93;;;2.23;;
2225;SDS011;1119;48.288;8.726;2024-02-26T00:13:23;20.90;;;2.30;;
2225;SDS011;1119;48.288;8.726;2024-02-26T00:15:50;20.87;;;2.20;;
2225;SDS011;1119;48.288;8.726;2024-02-26T00:18:17;20.97;;;2.27;;
2225;SDS011;1119;48.288;8.726;2024-02-26T00:20:46;20.90;;;2.17;;
2225;SDS011;1119;48.288;8.726;2024-02-26T00:23:14;20.87;;;2.00;;
2225;SDS011;1119;48.288;8.726;2024-02-26T00:25:41;20.80;;;2.10;;
2225;SDS011;1119;48.288;8.726;2024-02-26T00:28:09;21.00;;;2.50;;
2225;SDS011;1119;48.288;8.726;2024-02-26T00:30:38;20.87;;;2.00;;
2225;SDS011;1119;48.288;8.726;2024-02-26T00:33:06;20.90;;;2.07;;
2225;SDS011;1119;48.288;8.726;2024-02-26T00:35:33;20.80;;;2.30;;
2225;SDS011;1119;48.288;8.726;2024-02-26T00:38:01;20.90;;;2.20;;
2225;SDS011;1119;48.288;8.726;2024-02-26T00:40:29;20.90;;;1.97;;
2225;SDS011;1119;48.288;8.726;2024-02-26T00:42:56;20.87;;;2.20;;
2225;SDS011;1119;48.288;8.726;2024-02-26T00:45:24;20.87;;;2.00;;
2225;SDS011;1119;48.288;8.726;2024-02-26T00:47:51;20.90;;;2.00;;
2225;SDS011;1119;48.288;8.726;2024-02-26T00:50:19;20.70;;;2.10;;
2225;SDS011;1119;48.288;8.726;2024-02-26T00:52:46;20.70;;;2.00;;
2225;SDS011;1119;48.288;8.726;2024-02-26T00:55:15;20.87;;;2.13;;
2225;SDS011;1119;48.288;8.726;2024-02-26T00:57:42;20.83;;;2.27;;
2225;SDS011;1119;48.288;8.726;2024-02-26T01:00:10;20.90;;;2.40;;
2225;SDS011;1119;48.288;8.726;2024-02-26T01:02:39;20.90;;;2.10;;
2225;SDS011;1119;48.288;8.726;2024-02-26T01:05:07;20.97;;;2.27;;
2225;SDS011;1119;48.288;8.726;2024-02-26T01:07:35;20.80;;;2.30;;
2225;SDS011;1119;48.288;8.726;2024-02-26T01:10:03;20.80;;;1.90;;
2225;SDS011;1119;48.288;8.726;2024-02-26T01:12:32;20.80;;;2.17;;
2225;SDS011;1119;48.288;8.726;2024-02-26T01:15:00;20.80;;;2.03;;
2225;SDS011;1119;48.288;8.726;2024-02-26T01:17:28;20.97;;;2.20;;
2225;SDS011;1119;48.288;8.726;2024-02-26T01:19:55;20.80;;;2.07;;
2225;SDS011;1119;48.288;8.726;2024-02-26T01:22:23;20.87;;;2.13;;
2225;SDS011;1119;48.288;8.726;2024-02-26T01:24:50;20.83;;;2.10;;
2225;SDS011;1119;48.288;8.726;2024-02-26T01:27:17;20.87;;;2.10;;
2225;SDS011;1119;48.288;8.726;2024-02-26T01:29:46;20.70;;;2.07;;
2225;SDS011;1119;48.288;8.726;2024-02-26T01:32:13;20.90;;;2.40;;
2225;SDS011;1119;48.288;8.726;2024-02-26T01:34:40;20.93;;;2.13;;
2225;SDS011;1119;48.288;8.726;2024-02-26T01:37:07;20.80;;;2.10;;
2225;SDS011;1119;48.288;8.726;2024-02-26T01:39:35;20.70;;;2.00;;
2225;SDS011;1119;48.288;8.726;2024-02-26T01:42:02;20.97;;;2.40;;
2225;SDS011;1119;48.288;8.726;2024-02-26T01:44:30;20.90;;;2.13;;
2225;SDS011;1119;48.288;8.726;2024-02-26T01:46:58;20.83;;;2.30;;
2225;SDS011;1119;48.288;8.726;2024-02-26T01:49:28;20.80;;;2.20;;
2225;SDS011;1119;48.288;8.726;2024-02-26T01:51:56;20.83;;;2.20;;
2225;SDS011;1119;48.288;8.726;2024-02-26T01:54:24;20.90;;;2.13;;
2225;SDS011;1119;48.288;8.726;2024-02-26T01:56:52;20.77;;;2.00;;
2225;SDS011;1119;48.288;8.726;2024-02-26T01:59:20;21.00;;;2.20;;
2225;SDS011;1119;48.288;8.726;2024-02-26T02:01:48;20.87;;;2.30;;
2225;SDS011;1119;48.288;8.726;2024-02-26T02:04:23;20.97;;;2.30;;
2225;SDS011;1119;48.288;8.726;2024-02-26T02:06:51;20.70;;;2.03;;
2225;SDS011;1119;48.288;8.726;2024-02-26T02:09:19;20.90;;;2.33;;
2225;SDS011;1119;48.288;8.726;2024-02-26T02:11:48;20.80;;;2.10;;
2225;SDS011;1119;48.288;8.726;2024-02-26T02:14:15;20.83;;;2.27;;
2225;SDS011;1119;48.288;8.726;2024-02-26T02:16:42;20.90;;;2.40;;
2225;SDS011;1119;48.288;8.726;2024-02-26T02:19:10;20.80;;;2.60;;
2225;SDS011;1119;48.288;8.726;2024-02-26T02:21:38;20.70;;;2.30;;
2225;SDS011;1119;48.288;8.726;2024-02-26T02:24:06;20.80;;;2.27;;
2225;SDS011;1119;48.288;8.726;2024-02-26T02:26:33;20.70;;;2.10;;
2225;SDS011;1119;48.288;8.726;2024-02-26T02:29:01;20.60;;;2.20;;
2225;SDS011;1119;48.288;8.726;2024-02-26T02:31:30;20.60;;;2.10;;
2225;SDS011;1119;48.288;8.726;2024-02-26T02:33:57;20.70;;;2.30;;
2225;SDS011;1119;48.288;8.726;2024-02-26T02:36:24;20.70;;;2.27;;
2225;SDS011;1119;48.288;8.726;2024-02-26T02:38:53;20.63;;;2.20;;
2225;SDS011;1119;48.288;8.726;2024-02-26T02:41:20;20.73;;;2.50;;
2225;SDS011;1119;48.288;8.726;2024-02-26T02:43:48;20.70;;;2.30;;
2225;SDS011;1119;48.288;8.726;2024-02-26T02:46:15;20.70;;;2.50;;
2225;SDS011;1119;48.288;8.726;2024-02-26T02:48:42;20.57;;;2.10;;
2225;SDS011;1119;48.288;8.726;2024-02-26T02:51:09;20.57;;;2.20;;
2225;SDS011;1119;48.288;8.726;2024-02-26T02:53:37;20.60;;;2.20;;
2225;SDS011;1119;48.288;8.726;2024-02-26T02:56:05;20.57;;;2.10;;
2225;SDS011;1119;48.288;8.726;2024-02-26T02:58:33;20.53;;;2.10;;
2225;SDS011;1119;48.288;8.726;2024-02-26T03:01:00;20.50;;;2.23;;
2225;SDS011;1119;48.288;8.726;2024-02-26T03:03:27;20.67;;;2.17;;
2225;SDS011;1119;48.288;8.726;2024-02-26T03:05:54;20.53;;;2.20;;
2225;SDS011;1119;48.288;8.726;2024-02-26T03:08:22;20.70;;;2.37;;
2225;SDS011;1119;48.288;8.726;2024-02-26T03:10:51;20.57;;;2.40;;
2225;SDS011;1119;48.288;8.726;2024-02-26T03:13:19;20.67;;;2.43;;
2225;SDS011;1119;48.288;8.726;2024-02-26T03:15:47;20.67;;;2.27;;
2225;SDS011;1119;48.288;8.726;2024-02-26T03:18:14;20.57;;;2.10;;
2225;SDS011;1119;48.288;8.726;2024-02-26T03:20:42;20.50;;;2.10;;
2225;SDS011;1119;48.288;8.726;2024-02-26T03:23:09;20.63;;;2.30;;
2225;SDS011;1119;48.288;8.726;2024-02-26T03:25:38;20.63;;;2.20;;
2225;SDS011;1119;48.288;8.726;2024-02-26T03:28:05;20.53;;;2.30;;
2225;SDS011;1119;48.288;8.726;2024-02-26T03:30:34;20.67;;;2.40;;
2225;SDS011;1119;48.288;8.726;2024-02-26T03:33:01;20.60;;;2.10;;
2225;SDS011;1119;48.288;8.726;2024-02-26T03:35:29;20.53;;;2.40;;
2225;SDS011;1119;48.288;8.726;2024-02-26T03:37:56;20.63;;;2.00;;
2225;SDS011;1119;48.288;8.726;2024-02-26T03:40:23;20.70;;;2.30;;
2225;SDS011;1119;48.288;8.726;2024-02-26T03:42:50;20.60;;;2.10;;
2225;SDS011;1119;48.288;8.726;2024-02-26T03:45:19;20.63;;;2.10;;
2225;SDS011;1119;48.288;8.726;2024-02-26T03:47:48;20.57;;;2.13;;
2225;SDS011;1119;48.288;8.726;2024-02-26T03:50:15;20.60;;;2.30;;
2225;SDS011;1119;48.288;8.726;2024-02-26T03:52:42;20.50;;;2.17;;
2225;SDS011;1119;48.288;8.726;2024-02-26T03:55:10;20.53;;;2.17;;
2225;SDS011;1119;48.288;8.726;2024-02-26T03:57:37;20.53;;;2.20;;
2225;SDS011;1119;48.288;8.726;2024-02-26T04:00:04;20.30;;;2.10;;
2225;SDS011;1119;48.288;8.726;2024-02-26T04:02:36;20.30;;;2.20;;
2225;SDS011;1119;48.288;8.726;2024-02-26T04:05:08;20.40;;;2.27;;
2225;SDS011;1119;48.288;8.726;2024-02-26T04:07:36;20.30;;;2.27;;
2225;SDS011;1119;48.288;8.726;2024-02-26T04:10:07;20.40;;;2.17;;
2225;SDS011;1119;48.288;8.726;2024-02-26T04:12:37;20.27;;;2.10;;
2225;SDS011;1119;48.288;8.726;2024-02-26T04:15:06;20.40;;;2.50;;
2225;SDS011;1119;48.288;8.726;2024-02-26T04:17:35;20.37;;;2.20;;
2225;SDS011;1119;48.288;8.726;2024-02-26T04:20:06;20.37;;;2.17;;
2225;SDS011;1119;48.288;8.726;2024-02-26T04:22:35;20.40;;;2.40;;
2225;SDS011;1119;48.288;8.726;2024-02-26T04:25:02;20.17;;;2.30;;
2225;SDS011;1119;48.288;8.726;2024-02-26T04:27:30;20.33;;;2.40;;
2225;SDS011;1119;48.288;8.726;2024-02-26T04:29:57;20.27;;;2.50;;
2225;SDS011;1119;48.288;8.726;2024-02-26T04:32:24;20.23;;;2.30;;
2225;SDS011;1119;48.288;8.726;2024-02-26T04:34:51;20.30;;;2.10;;
2225;SDS011;1119;48.288;8.726;2024-02-26T04:37:20;20.30;;;2.20;;
2225;SDS011;1119;48.288;8.726;2024-02-26T04:39:47;20.20;;;2.27;;
2225;SDS011;1119;48.288;8.726;2024-02-26T04:42:14;20.27;;;2.10;;
2225;SDS011;1119;48.288;8.726;2024-02-26T04:44:41;20.50;;;2.23;;
2225;SDS011;1119;48.288;8.726;2024-02-26T04:47:09;20.37;;;2.30;;
2225;SDS011;1119;48.288;8.726;2024-02-26T04:49:36;20.40;;;2.17;;
2225;SDS011;1119;48.288;8.726;2024-02-26T04:52:03;20.30;;;2.17;;
2225;SDS011;1119;48.288;8.726;2024-02-26T04:54:33;20.40;;;2.40;;
2225;SDS011;1119;48.288;8.726;2024-02-26T04:57:00;20.30;;;2.40;;
2225;SDS011;1119;48.288;8.726;2024-02-26T04:59:27;20.20;;;2.30;;
2225;SDS011;1119;48.288;8.726;2024-02-26T05:01:54;20.40;;;2.30;;
2225;SDS011;1119;48.288;8.726;2024-02-26T05:04:22;20.20;;;2.30;;
2225;SDS011;1119;48.288;8.726;2024-02-26T05:06:49;20.30;;;2.17;;
2225;SDS011;1119;48.288;8.726;2024-02-26T05:09:16;20.43;;;2.40;;
2225;SDS011;1119;48.288;8.726;2024-02-26T05:11:45;20.37;;;2.80;;
2225;SDS011;1119;48.288;8.726;2024-02-26T05:14:12;20.27;;;2.57;;
2225;SDS011;1119;48.288;8.726;2024-02-26T05:16:39;20.30;;;2.30;;
2225;SDS011;1119;48.288;8.726;2024-02-26T05:19:06;20.37;;;2.60;;
2225;SDS011;1119;48.288;8.726;2024-02-26T05:21:34;20.30;;;2.47;;
2225;SDS011;1119;48.288;8.726;2024-02-26T05:24:01;20.23;;;2.57;;
2225;SDS011;1119;48.288;8.726;2024-02-26T05:26:28;20.37;;;2.47;;
2225;SDS011;1119;48.288;8.726;2024-02-26T05:28:57;20.37;;;2.47;;
2225;SDS011;1119;48.288;8.726;2024-02-26T05:31:25;20.30;;;2.40;;
2225;SDS011;1119;48.288;8.726;2024-02-26T05:33:54;20.30;;;2.40;;
2225;SDS011;1119;48.288;8.726;2024-02-26T05:36:21;20.37;;;2.20;;
2225;SDS011;1119;48.288;8.726;2024-02-26T05:38:48;20.37;;;2.60;;
2225;SDS011;1119;48.288;8.726;2024-02-26T05:41:16;20.37;;;2.60;;
2225;SDS011;1119;48.288;8.726;2024-02-26T05:43:48;20.30;;;2.40;;
2225;SDS011;1119;48.288;8.726;2024-02-26T05:46:17;20.30;;;2.10;;
2225;SDS011;1119;48.288;8.726;2024-02-26T05:48:46;20.33;;;2.40;;
2225;SDS011;1119;48.288;8.726;2024-02-26T05:51:14;20.37;;;2.50;;
2225;SDS011;1119;48.288;8.726;2024-02-26T05:53:41;20.20;;;2.20;;
2225;SDS011;1119;48.288;8.726;2024-02-26T05:56:09;20.30;;;2.17;;
2225;SDS011;1119;48.288;8.726;2024-02-26T05:58:36;20.43;;;2.40;;
2225;SDS011;1119;48.288;8.726;2024-02-26T06:01:03;20.40;;;2.70;;
2225;SDS011;1119;48.288;8.726;2024-02-26T06:03:32;20.50;;;2.70;;
2225;SDS011;1119;48.288;8.726;2024-02-26T06:06:00;20.50;;;2.70;;
2225;SDS011;1119;48.288;8.726;2024-02-26T06:08:27;20.20;;;2.47;;
2225;SDS011;1119;48.288;8.726;2024-02-26T06:10:54;20.40;;;2.70;;
2225;SDS011;1119;48.288;8.726;2024-02-26T06:13:21;20.30;;;2.60;;
2225;SDS011;1119;48.288;8.726;2024-02-26T06:15:48;20.30;;;2.70;;
2225;SDS011;1119;48.288;8.726;2024-02-26T06:18:16;20.30;;;2.93;;
2225;SDS011;1119;48.288;8.726;2024-02-26T06:20:44;20.37;;;2.70;;
2225;SDS011;1119;48.288;8.726;2024-02-26T06:23:12;20.20;;;2.40;;
2225;SDS011;1119;48.288;8.726;2024-02-26T06:25:39;20.33;;;2.50;;
2225;SDS011;1119;48.288;8.726;2024-02-26T06:28:07;20.20;;;2.37;;
2225;SDS011;1119;48.288;8.726;2024-02-26T06:30:35;20.23;;;2.13;;
2225;SDS011;1119;48.288;8.726;2024-02-26T06:33:02;20.20;;;2.50;;
2225;SDS011;1119;48.288;8.726;2024-02-26T06:35:30;20.20;;;2.50;;
2225;SDS011;1119;48.288;8.726;2024-02-26T06:37:59;20.17;;;2.20;;
2225;SDS011;1119;48.288;8.726;2024-02-26T06:40:26;20.20;;;2.57;;
2225;SDS011;1119;48.288;8.726;2024-02-26T06:42:54;20.20;;;2.23;;
2225;SDS011;1119;48.288;8.726;2024-02-26T06:45:21;20.33;;;2.77;;
2225;SDS011;1119;48.288;8.726;2024-02-26T06:47:49;20.40;;;2.80;;
2225;SDS011;1119;48.288;8.726;2024-02-26T06:50:16;20.40;;;2.77;;
2225;SDS011;1119;48.288;8.726;2024-02-26T06:52:44;20.30;;;2.80;;
2225;SDS011;1119;48.288;8.726;2024-02-26T06:55:13;20.30;;;2.50;;
2225;SDS011;1119;48.288;8.726;2024-02-26T06:57:40;20.30;;;2.57;;
2225;SDS011;1119;48.288;8.726;2024-02-26T07:00:08;20.10;;;2.40;;
2225;SDS011;1119;48.288;8.726;2024-02-26T07:02:39;20.37;;;2.80;;
2225;SDS011;1119;48.288;8.726;2024-02-26T07:05:07;20.23;;;2.37;;
2225;SDS011;1119;48.288;8.726;2024-02-26T07:07:35;20.27;;;2.40;;
2225;SDS011;1119;48.288;8.726;2024-02-26T07:10:02;20.20;;;2.43;;
2225;SDS011;1119;48.288;8.726;2024-02-26T07:12:32;20.10;;;2.23;;
2225;SDS011;1119;48.288;8.726;2024-02-26T07:15:00;20.23;;;2.20;;
2225;SDS011;1119;48.288;8.726;2024-02-26T07:17:28;20.20;;;2.27;;
2225;SDS011;1119;48.288;8.726;2024-02-26T07:19:55;20.23;;;2.30;;
2225;SDS011;1119;48.288;8.726;2024-02-26T07:22:22;20.00;;;2.27;;
2225;SDS011;1119;48.288;8.726;2024-02-26T07:24:50;20.23;;;2.10;;
2225;SDS011;1119;48.288;8.726;2024-02-26T07:27:18;20.27;;;2.30;;
2225;SDS011;1119;48.288;8.726;2024-02-26T07:29:48;20.13;;;2.20;;
2225;SDS011;1119;48.288;8.726;2024-02-26T07:32:15;20.10;;;2.43;;
2225;SDS011;1119;48.288;8.726;2024-02-26T07:34:42;20.20;;;2.60;;
2225;SDS011;1119;48.288;8.726;2024-02-26T07:37:10;20.10;;;2.50;;
2225;SDS011;1119;48.288;8.726;2024-02-26T07:39:38;20.10;;;2.20;;
2225;SDS011;1119;48.288;8.726;2024-02-26T07:42:05;20.20;;;2.27;;
2225;SDS011;1119;48.288;8.726;2024-02-26T07:44:33;20.07;;;2.33;;
2225;SDS011;1119;48.288;8.726;2024-02-26T07:47:02;20.17;;;2.47;;
2225;SDS011;1119;48.288;8.726;2024-02-26T07:49:30;20.20;;;2.60;;
2225;SDS011;1119;48.288;8.726;2024-02-26T07:51:57;20.17;;;2.40;;
2225;SDS011;1119;48.288;8.726;2024-02-26T07:54:25;20.30;;;2.43;;
2225;SDS011;1119;48.288;8.726;2024-02-26T07:56:53;20.20;;;2.13;;
2225;SDS011;1119;48.288;8.726;2024-02-26T07:59:20;20.10;;;2.23;;
2225;SDS011;1119;48.288;8.726;2024-02-26T08:01:49;20.17;;;2.20;;
2225;SDS011;1119;48.288;8.726;2024-02-26T08:04:18;20.10;;;2.10;;
2225;SDS011;1119;48.288;8.726;2024-02-26T08:06:46;20.20;;;2.30;;
2225;SDS011;1119;48.288;8.726;2024-02-26T08:09:13;20.03;;;2.07;;
2225;SDS011;1119;48.288;8.726;2024-02-26T08:11:40;20.20;;;2.40;;
2225;SDS011;1119;48.288;8.726;2024-02-26T08:14:08;20.27;;;2.50;;
2225;SDS011;1119;48.288;8.726;2024-02-26T08:16:35;20.10;;;1.90;;
2225;SDS011;1119;48.288;8.726;2024-02-26T08:19:03;20.13;;;2.30;;
2225;SDS011;1119;48.288;8.726;2024-02-26T08:21:32;20.00;;;1.90;;
2225;SDS011;1119;48.288;8.726;2024-02-26T08:23:59;20.10;;;2.20;;
2225;SDS011;1119;48.288;8.726;2024-02-26T08:26:27;20.07;;;2.23;;
2225;SDS011;1119;48.288;8.726;2024-02-26T08:28:54;20.20;;;2.30;;
2225;SDS011;1119;48.288;8.726;2024-02-26T08:31:23;20.10;;;2.03;;
2225;SDS011;1119;48.288;8.726;2024-02-26T08:33:51;20.13;;;2.20;;
2225;SDS011;1119;48.288;8.726;2024-02-26T08:36:18;20.20;;;2.20;;
2225;SDS011;1119;48.288;8.726;2024-02-26T08:38:47;20.17;;;2.17;;
2225;SDS011;1119;48.288;8.726;2024-02-26T08:41:15;20.23;;;2.60;;
2225;SDS011;1119;48.288;8.726;2024-02-26T08:43:42;20.27;;;2.30;;
2225;SDS011;1119;48.288;8.726;2024-02-26T08:46:10;20.10;;;2.23;;
2225;SDS011;1119;48.288;8.726;2024-02-26T08:48:39;20.00;;;2.00;;
2225;SDS011;1119;48.288;8.726;2024-02-26T08:51:07;20.10;;;2.30;;
2225;SDS011;1119;48.288;8.726;2024-02-26T08:53:35;20.10;;;2.40;;
2225;SDS011;1119;48.288;8.726;2024-02-26T08:56:05;20.17;;;2.40;;
2225;SDS011;1119;48.288;8.726;2024-02-26T08:58:33;20.23;;;2.50;;
2225;SDS011;1119;48.288;8.726;2024-02-26T09:01:01;20.20;;;2.50;;
2225;SDS011;1119;48.288;8.726;2024-02-26T09:03:29;20.23;;;2.20;;
2225;SDS011;1119;48.288;8.726;2024-02-26T09:05:56;20.00;;;2.40;;
2225;SDS011;1119;48.288;8.726;2024-02-26T09:08:24;20.10;;;2.20;;
2225;SDS011;1119;48.288;8.726;2024-02-26T09:10:51;20.20;;;2.40;;
2225;SDS011;1119;48.288;8.726;2024-02-26T09:13:20;20.20;;;2.40;;
2225;SDS011;1119;48.288;8.726;2024-02-26T09:15:48;20.03;;;2.13;;
2225;SDS011;1119;48.288;8.726;2024-02-26T09:18:16;20.20;;;2.50;;
2225;SDS011;1119;48.288;8.726;2024-02-26T09:20:43;20.17;;;2.30;;
2225;SDS011;1119;48.288;8.726;2024-02-26T09:23:11;20.00;;;2.33;;
2225;SDS011;1119;48.288;8.726;2024-02-26T09:25:38;20.07;;;2.30;;
2225;SDS011;1119;48.288;8.726;2024-02-26T09:28:06;20.00;;;2.27;;
2225;SDS011;1119;48.288;8.726;2024-02-26T09:30:35;20.10;;;2.30;;
2225;SDS011;1119;48.288;8.726;2024-02-26T09:33:03;20.10;;;2.23;;
2225;SDS011;1119;48.288;8.726;2024-02-26T09:35:31;20.17;;;2.60;;
2225;SDS011;1119;48.288;8.726;2024-02-26T09:37:59;20.00;;;2.00;;
2225;SDS011;1119;48.288;8.726;2024-02-26T09:40:26;20.20;;;2.43;;
2225;SDS011;1119;48.288;8.726;2024-02-26T09:42:56;20.17;;;2.40;;
2225;SDS011;1119;48.288;8.726;2024-02-26T09:45:27;20.03;;;1.93;;
2225;SDS011;1119;48.288;8.726;2024-02-26T09:47:59;20.27;;;2.43;;
2225;SDS011;1119;48.288;8.726;2024-02-26T09:50:27;20.23;;;2.47;;
2225;SDS011;1119;48.288;8.726;2024-02-26T09:52:54;20.20;;;2.23;;
2225;SDS011;1119;48.288;8.726;2024-02-26T09:55:25;20.07;;;2.23;;
2225;SDS011;1119;48.288;8.726;2024-02-26T09:57:52;20.27;;;2.47;;
2225;SDS011;1119;48.288;8.726;2024-02-26T10:00:21;20.17;;;1.90;;
2225;SDS011;1119;48.288;8.726;2024-02-26T10:02:48;20.10;;;2.30;;
2225;SDS011;1119;48.288;8.726;2024-02-26T10:05:18;20.00;;;1.80;;
2225;SDS011;1119;48.288;8.726;2024-02-26T10:07:46;20.20;;;2.40;;
2225;SDS011;1119;48.288;8.726;2024-02-26T10:10:15;20.23;;;2.40;;
2225;SDS011;1119;48.288;8.726;2024-02-26T10:12:43;20.23;;;2.30;;
2225;SDS011;1119;48.288;8.726;2024-02-26T10:15:11;20.20;;;2.40;;
2225;SDS011;1119;48.288;8.726;2024-02-26T10:17:38;20.33;;;2.40;;
2225;SDS011;1119;48.288;8.726;2024-02-26T10:20:11;20.10;;;2.30;;
2225;SDS011;1119;48.288;8.726;2024-02-26T10:22:42;20.20;;;2.33;;
2225;SDS011;1119;48.288;8.726;2024-02-26T10:25:10;20.17;;;2.33;;
2225;SDS011;1119;48.288;8.726;2024-02-26T10:27:38;20.27;;;2.40;;
2225;SDS011;1119;48.288;8.726;2024-02-26T10:30:15;20.23;;;2.40;;
2225;SDS011;1119;48.288;8.726;2024-02-26T10:32:45;20.13;;;2.57;;
2225;SDS011;1119;48.288;8.726;2024-02-26T10:35:13;20.17;;;2.30;;
2225;SDS011;1119;48.288;8.726;2024-02-26T10:37:41;20.20;;;2.50;;
2225;SDS011;1119;48.288;8.726;2024-02-26T10:40:10;20.07;;;2.20;;
2225;SDS011;1119;48.288;8.726;2024-02-26T10:42:38;20.17;;;2.60;;
2225;SDS011;1119;48.288;8.726;2024-02-26T10:45:06;20.00;;;2.20;;
2225;SDS011;1119;48.288;8.726;2024-02-26T10:47:35;20.20;;;2.47;;
2225;SDS011;1119;48.288;8.726;2024-02-26T10:50:03;20.10;;;2.37;;
2225;SDS011;1119;48.288;8.726;2024-02-26T10:52:33;20.20;;;2.37;;
2225;SDS011;1119;48.288;8.726;2024-02-26T10:55:03;20.17;;;2.53;;
2225;SDS011;1119;48.288;8.726;2024-02-26T10:57:33;20.20;;;2.73;;
2225;SDS011;1119;48.288;8.726;2024-02-26T11:00:05;20.20;;;2.80;;
2225;SDS011;1119;48.288;8.726;2024-02-26T11:02:36;20.23;;;2.70;;
2225;SDS011;1119;48.288;8.726;2024-02-26T11:05:03;20.20;;;2.63;;
2225;SDS011;1119;48.288;8.726;2024-02-26T11:07:32;20.20;;;2.50;;
2225;SDS011;1119;48.288;8.726;2024-02-26T11:10:04;20.17;;;2.40;;
2225;SDS011;1119;48.288;8.726;2024-02-26T11:12:35;20.20;;;2.40;;
2225;SDS011;1119;48.288;8.726;2024-02-26T11:15:03;20.13;;;2.13;;
2225;SDS011;1119;48.288;8.726;2024-02-26T11:17:31;20.23;;;2.30;;
2225;SDS011;1119;48.288;8.726;2024-02-26T11:20:00;20.20;;;2.70;;
2225;SDS011;1119;48.288;8.726;2024-02-26T11:22:28;20.27;;;2.63;;
2225;SDS011;1119;48.288;8.726;2024-02-26T11:24:56;20.13;;;2.63;;
2225;SDS011;1119;48.288;8.726;2024-02-26T11:27:28;20.10;;;2.50;;
2225;SDS011;1119;48.288;8.726;2024-02-26T11:30:01;20.17;;;2.40;;
2225;SDS011;1119;48.288;8.726;2024-02-26T11:32:31;20.10;;;2.60;;
2225;SDS011;1119;48.288;8.726;2024-02-26T11:35:00;20.20;;;2.50;;
2225;SDS011;1119;48.288;8.726;2024-02-26T11:37:28;20.10;;;2.50;;
2225;SDS011;1119;48.288;8.726;2024-02-26T11:39:56;20.30;;;2.70;;
2225;SDS011;1119;48.288;8.726;2024-02-26T11:42:27;20.10;;;2.40;;
2225;SDS011;1119;48.288;8.726;2024-02-26T11:44:56;20.10;;;2.40;;
2225;SDS011;1119;48.288;8.726;2024-02-26T11:47:26;20.23;;;2.57;;
2225;SDS011;1119;48.288;8.726;2024-02-26T11:49:54;20.27;;;2.60;;
2225;SDS011;1119;48.288;8.726;2024-02-26T11:52:21;19.90;;;2.20;;
2225;SDS011;1119;48.288;8.726;2024-02-26T11:54:50;20.07;;;2.10;;
2225;SDS011;1119;48.288;8.726;2024-02-26T11:57:25;20.27;;;2.70;;
2225;SDS011;1119;48.288;8.726;2024-02-26T11:59:55;20.23;;;2.60;;
2225;SDS011;1119;48.288;8.726;2024-02-26T12:02:40;20.10;;;2.60;;
2225;SDS011;1119;48.288;8.726;2024-02-26T12:05:12;20.10;;;2.47;;
2225;SDS011;1119;48.288;8.726;2024-02-26T12:07:45;20.10;;;2.43;;
2225;SDS011;1119;48.288;8.726;2024-02-26T12:10:15;20.10;;;2.63;;
2225;SDS011;1119;48.288;8.726;2024-02-26T12:12:56;20.13;;;2.70;;
2225;SDS011;1119;48.288;8.726;2024-02-26T12:15:30;20.17;;;2.60;;
2225;SDS011;1119;48.288;8.726;2024-02-26T12:18:00;20.20;;;2.50;;
2225;SDS011;1119;48.288;8.726;2024-02-26T12:20:29;20.20;;;2.50;;
2225;SDS011;1119;48.288;8.726;2024-02-26T12:22:56;20.10;;;2.50;;
2225;SDS011;1119;48.288;8.726;2024-02-26T12:25:25;20.17;;;2.23;;
2225;SDS011;1119;48.288;8.726;2024-02-26T12:27:54;20.27;;;2.60;;
2225;SDS011;1119;48.288;8.726;2024-02-26T12:30:23;20.13;;;2.50;;
2225;SDS011;1119;48.288;8.726;2024-02-26T12:32:59;20.00;;;2.17;;
2225;SDS011;1119;48.288;8.726;2024-02-26T12:35:28;20.13;;;2.37;;
2225;SDS011;1119;48.288;8.726;2024-02-26T12:37:57;20.00;;;2.00;;
2225;SDS011;1119;48.288;8.726;2024-02-26T12:40:25;20.00;;;2.27;;
2225;SDS011;1119;48.288;8.726;2024-02-26T12:42:53;19.90;;;2.17;;
2225;SDS011;1119;48.288;8.726;2024-02-26T12:45:22;20.10;;;2.30;;
2225;SDS011;1119;48.288;8.726;2024-02-26T12:47:53;20.20;;;2.53;;
2225;SDS011;1119;48.288;8.726;2024-02-26T12:50:20;20.07;;;2.27;;
2225;SDS011;1119;48.288;8.726;2024-02-26T12:52:47;20.13;;;2.20;;
2225;SDS011;1119;48.288;8.726;2024-02-26T12:55:16;20.13;;;2.40;;
2225;SDS011;1119;48.288;8.726;2024-02-26T12:57:46;20.13;;;2.67;;
2225;SDS011;1119;48.288;8.726;2024-02-26T13:00:16;20.00;;;2.00;;
2225;SDS011;1119;48.288;8.726;2024-02-26T13:02:48;20.00;;;2.27;;
2225;SDS011;1119;48.288;8.726;2024-02-26T13:05:17;20.07;;;2.40;;
2225;SDS011;1119;48.288;8.726;2024-02-26T13:07:46;20.07;;;2.40;;
2225;SDS011;1119;48.288;8.726;2024-02-26T13:10:14;20.17;;;2.60;;
2225;SDS011;1119;48.288;8.726;2024-02-26T13:12:43;20.00;;;2.47;;
2225;SDS011;1119;48.288;8.726;2024-02-26T13:15:14;19.97;;;2.30;;
2225;SDS011;1119;48.288;8.726;2024-02-26T13:17:43;20.07;;;2.50;;
2225;SDS011;1119;48.288;8.726;2024-02-26T13:20:12;20.07;;;2.40;;
2225;SDS011;1119;48.288;8.726;2024-02-26T13:22:59;19.90;;;2.40;;
2225;SDS011;1119;48.288;8.726;2024-02-26T13:25:27;20.10;;;2.33;;
2225;SDS011;1119;48.288;8.726;2024-02-26T13:28:04;20.03;;;2.23;;
2225;SDS011;1119;48.288;8.726;2024-02-26T13:30:35;20.13;;;2.50;;
2225;SDS011;1119;48.288;8.726;2024-02-26T13:33:12;20.13;;;2.60;;
2225;SDS011;1119;48.288;8.726;2024-02-26T13:35:41;20.03;;;2.47;;
2225;SDS011;1119;48.288;8.726;2024-02-26T13:38:09;20.10;;;2.17;;
2225;SDS011;1119;48.288;8.726;2024-02-26T13:40:37;20.10;;;2.63;;
2225;SDS011;1119;48.288;8.726;2024-02-26T13:43:05;20.17;;;2.90;;
2225;SDS011;1119;48.288;8.726;2024-02-26T13:45:34;20.20;;;2.60;;
2225;SDS011;1119;48.288;8.726;2024-02-26T13:48:05;20.23;;;2.77;;
2225;SDS011;1119;48.288;8.726;2024-02-26T13:50:35;20.13;;;2.47;;
2225;SDS011;1119;48.288;8.726;2024-02-26T13:53:04;20.10;;;2.60;;
2225;SDS011;1119;48.288;8.726;2024-02-26T13:55:32;20.17;;;2.50;;
2225;SDS011;1119;48.288;8.726;2024-02-26T13:58:00;20.07;;;2.53;;
2225;SDS011;1119;48.288;8.726;2024-02-26T14:00:27;20.20;;;2.80;;
2225;SDS011;1119;48.288;8.726;2024-02-26T14:02:57;20.27;;;2.63;;
2225;SDS011;1119;48.288;8.726;2024-02-26T14:05:25;20.17;;;2.60;;
2225;SDS011;1119;48.288;8.726;2024-02-26T14:07:52;20.10;;;2.30;;
2225;SDS011;1119;48.288;8.726;2024-02-26T14:10:21;20.20;;;2.70;;
2225;SDS011;1119;48.288;8.726;2024-02-26T14:12:49;20.10;;;2.50;;
2225;SDS011;1119;48.288;8.726;2024-02-26T14:15:16;20.20;;;2.30;;
2225;SDS011;1119;48.288;8.726;2024-02-26T14:17:44;20.10;;;2.23;;
2225;SDS011;1119;48.288;8.726;2024-02-26T14:20:18;20.13;;;2.50;;
2225;SDS011;1119;48.288;8.726;2024-02-26T14:22:46;20.10;;;2.37;;
2225;SDS011;1119;48.288;8.726;2024-02-26T14:25:14;20.17;;;2.30;;
2225;SDS011;1119;48.288;8.726;2024-02-26T14:27:43;20.10;;;2.10;;
2225;SDS011;1119;48.288;8.726;2024-02-26T14:30:11;20.27;;;2.43;;
2225;SDS011;1119;48.288;8.726;2024-02-26T14:32:39;20.20;;;2.50;;
2225;SDS011;1119;48.288;8.726;2024-02-26T14:35:07;20.13;;;2.50;;
2225;SDS011;1119;48.288;8.726;2024-02-26T14:37:35;20.00;;;2.20;;
2225;SDS011;1119;48.288;8.726;2024-02-26T14:40:03;20.10;;;2.40;;
2225;SDS011;1119;48.288;8.726;2024-02-26T14:42:32;20.03;;;2.17;;
2225;SDS011;1119;48.288;8.726;2024-02-26T14:45:00;20.20;;;2.30;;
2225;SDS011;1119;48.288;8.726;2024-02-26T14:47:30;20.13;;;2.40;;
2225;SDS011;1119;48.288;8.726;2024-02-26T14:49:57;20.20;;;2.60;;
2225;SDS011;1119;48.288;8.726;2024-02-26T14:52:25;20.00;;;2.10;;
2225;SDS011;1119;48.288;8.726;2024-02-26T14:54:52;20.07;;;2.33;;
2225;SDS011;1119;48.288;8.726;2024-02-26T14:57:20;20.20;;;2.50;;
2225;SDS011;1119;48.288;8.726;2024-02-26T14:59:47;20.10;;;2.30;;
2225;SDS011;1119;48.288;8.726;2024-02-26T15:02:17;20.17;;;2.40;;
2225;SDS011;1119;48.288;8.726;2024-02-26T15:04:44;20.10;;;2.20;;
2225;SDS011;1119;48.288;8.726;2024-02-26T15:07:12;20.13;;;2.00;;